Aviation Digital Data Service (ADDS)

Output produced by METARs form (1807 UTC 24 June 2019)
found at http://www.aviationweather.gov/metar/data/
 
Forecast for: BIGR (GRIMSEY ISLAND , IS)
Text: TAF BIGR 241108Z 2412/2421 24012KT 9999 BKN040
Forecast period: 1200 to 2100 UTC 24 June 2019
Forecast type: FROM: standard forecast or significant change
Winds: from the WSW (240 degrees) at 14 MPH (12 knots; 6.2 m/s)
Visibility: 6 or more miles 10+ km)
Ceiling: 4000 feet AGL
Clouds: broken clouds at 4000 feet AGL
Weather: no significant weather forecast for this period